createdAt,value
2018-11-22T12:16:48.283Z,17.50
2018-11-22T12:19:16.770Z,15.63
2018-11-22T12:21:45.210Z,16.50
2018-11-22T12:24:13.703Z,18.03
2018-11-22T12:26:42.151Z,16.47
2018-11-22T12:29:10.621Z,15.60
2018-11-22T12:31:39.064Z,17.60
2018-11-22T12:34:12.821Z,13.13
2018-11-22T12:36:46.508Z,10.67
2018-11-22T12:39:16.039Z,11.80
2018-11-22T12:41:44.703Z,14.10
2018-11-22T12:44:13.166Z,14.77
2018-11-22T12:46:41.621Z,11.80
2018-11-22T12:49:10.072Z,14.60
2018-11-22T12:51:38.535Z,15.20
2018-11-22T12:54:06.989Z,9.70
2018-11-22T12:56:35.464Z,12.67
2018-11-22T12:59:03.915Z,13.47
2018-11-22T13:01:32.405Z,13.30
2018-11-22T13:04:00.860Z,14.60
2018-11-22T13:06:29.332Z,13.30
2018-11-22T13:08:57.769Z,15.27
2018-11-22T13:11:26.227Z,12.87
2018-11-22T13:13:54.672Z,15.20
2018-11-22T13:16:23.138Z,15.20
2018-11-22T13:18:51.563Z,14.40
2018-11-22T13:21:20.031Z,14.30
2018-11-22T13:23:48.489Z,15.27
2018-11-22T13:26:16.944Z,12.50
2018-11-22T13:28:45.450Z,13.23
2018-11-22T13:31:13.895Z,14.37
2018-11-22T13:33:42.315Z,14.90
2018-11-22T13:36:10.792Z,12.50
2018-11-22T13:38:39.231Z,14.67
2018-11-22T13:41:07.702Z,12.73
2018-11-22T13:43:36.157Z,13.80
2018-11-22T13:46:05.409Z,13.97
2018-11-22T13:48:33.131Z,14.73
2018-11-22T13:51:01.556Z,13.67
2018-11-22T13:53:30.013Z,14.30
2018-11-22T13:55:58.459Z,12.30
2018-11-22T13:58:26.921Z,14.50
2018-11-22T14:01:00.472Z,14.20
2018-11-22T14:03:28.957Z,12.70
2018-11-22T14:05:57.428Z,14.37
2018-11-22T14:08:25.887Z,12.60
2018-11-22T14:10:58.416Z,13.63
2018-11-22T14:13:22.807Z,13.83
2018-11-22T14:15:51.247Z,15.40
2018-11-22T14:18:19.711Z,13.93
2018-11-22T14:20:48.146Z,16.27
2018-11-22T14:23:16.640Z,21.43
2018-11-22T14:25:49.006Z,14.47
2018-11-22T14:28:13.555Z,15.23
2018-11-22T14:30:42.012Z,14.00
2018-11-22T14:33:10.586Z,13.73
2018-11-22T14:35:39.143Z,14.43
2018-11-22T14:38:07.610Z,14.40
2018-11-22T14:40:36.066Z,13.57
2018-11-22T14:43:04.509Z,13.53
2018-11-22T14:45:33.143Z,13.73
2018-11-22T14:48:02.651Z,14.10
2018-11-22T14:50:33.868Z,13.67
2018-11-22T14:53:09.758Z,10.47
2018-11-22T14:55:38.621Z,13.83
2018-11-22T14:58:07.493Z,15.03
2018-11-22T15:00:35.996Z,13.93
2018-11-22T15:03:04.478Z,14.67
2018-11-22T15:05:32.935Z,16.80
2018-11-22T15:08:01.427Z,17.57
2018-11-22T15:10:29.887Z,16.10
2018-11-22T15:12:58.345Z,14.47
2018-11-22T15:15:27.662Z,16.80
2018-11-22T15:17:56.098Z,16.27
2018-11-22T15:20:24.643Z,17.40
2018-11-22T15:22:53.863Z,16.10
2018-11-22T15:25:23.774Z,15.17
2018-11-22T15:27:52.299Z,14.13
2018-11-22T15:30:22.290Z,15.33
2018-11-22T15:32:50.907Z,14.17
2018-11-22T15:35:20.747Z,15.10
2018-11-22T15:37:49.570Z,14.60
2018-11-22T15:40:19.267Z,17.10
2018-11-22T15:42:49.239Z,15.87
2018-11-22T15:45:19.052Z,16.73
2018-11-22T15:47:47.757Z,16.73
2018-11-22T15:50:18.393Z,15.93
2018-11-22T15:52:47.137Z,15.97
2018-11-22T15:55:20.886Z,17.90
2018-11-22T15:57:46.379Z,16.13
2018-11-22T16:00:17.653Z,16.47
2018-11-22T16:02:46.752Z,17.60
2018-11-22T16:05:15.727Z,17.90
2018-11-22T16:07:44.316Z,16.40
2018-11-22T16:10:15.552Z,17.17
2018-11-22T16:12:44.299Z,18.50
2018-11-22T16:15:19.453Z,18.60
2018-11-22T16:17:48.005Z,16.90
2018-11-22T16:20:16.461Z,16.33
2018-11-22T16:22:45.078Z,15.17
2018-11-22T16:25:13.984Z,14.10
2018-11-22T16:27:43.290Z,15.50
2018-11-22T16:30:28.480Z,17.60
2018-11-22T16:32:56.984Z,17.43
2018-11-22T16:35:28.772Z,16.03
2018-11-22T16:37:54.947Z,17.33
2018-11-22T16:40:24.704Z,16.63
2018-11-22T16:42:54.177Z,16.97
2018-11-22T16:45:37.985Z,17.37
2018-11-22T16:48:08.649Z,17.50
2018-11-22T16:50:38.479Z,17.90
2018-11-22T16:53:07.101Z,17.63
2018-11-22T16:55:35.563Z,18.57
2018-11-22T16:58:04.491Z,17.77
2018-11-22T17:00:35.252Z,17.97
2018-11-22T17:03:05.979Z,17.53
2018-11-22T17:05:35.026Z,18.87
2018-11-22T17:08:04.305Z,17.00
2018-11-22T17:10:33.304Z,17.97
2018-11-22T17:13:02.760Z,17.33
2018-11-22T17:15:32.656Z,18.30
2018-11-22T17:18:01.514Z,19.50
2018-11-22T17:20:30.940Z,20.00
2018-11-22T17:22:59.599Z,18.40
2018-11-22T17:25:30.195Z,19.33
2018-11-22T17:28:00.922Z,18.00
2018-11-22T17:30:34.776Z,19.90
2018-11-22T17:33:03.232Z,18.13
2018-11-22T17:35:32.280Z,19.10
2018-11-22T17:38:01.989Z,19.20
2018-11-22T17:40:32.732Z,18.83
2018-11-22T17:43:01.182Z,19.37
2018-11-22T17:45:30.990Z,19.60
2018-11-22T17:47:59.455Z,19.83
2018-11-22T17:50:29.600Z,20.60
2018-11-22T17:52:58.049Z,20.37
2018-11-22T17:55:27.642Z,19.53
2018-11-22T17:57:56.107Z,21.03
2018-11-22T18:00:25.992Z,21.00
2018-11-22T18:02:55.686Z,19.30
2018-11-22T18:05:27.384Z,20.87
2018-11-22T18:07:52.689Z,19.60
2018-11-22T18:10:23.662Z,20.70
2018-11-22T18:12:53.203Z,20.50
2018-11-22T18:15:22.387Z,19.40
2018-11-22T18:17:51.494Z,21.50
2018-11-22T18:20:22.671Z,20.50
2018-11-22T18:22:52.052Z,22.43
2018-11-22T18:25:21.811Z,20.47
2018-11-22T18:27:50.358Z,20.37
2018-11-22T18:30:22.138Z,20.33
2018-11-22T18:32:52.011Z,18.93
2018-11-22T18:35:20.471Z,20.40
2018-11-22T18:37:48.938Z,20.10
2018-11-22T18:40:26.083Z,22.17
2018-11-22T18:42:55.578Z,20.47
2018-11-22T18:45:29.261Z,18.00
2018-11-22T18:47:57.724Z,21.13
2018-11-22T18:50:27.362Z,21.50
2018-11-22T18:52:55.828Z,21.23
2018-11-22T18:55:24.283Z,21.47
2018-11-22T18:57:52.763Z,22.10
2018-11-22T19:00:23.620Z,20.63
2018-11-22T19:02:52.952Z,21.00
2018-11-22T19:05:21.537Z,21.10
2018-11-22T19:07:50.756Z,22.10
2018-11-22T19:10:21.816Z,22.10
2018-11-22T19:12:51.363Z,20.03
2018-11-22T19:15:21.137Z,21.73
2018-11-22T19:17:49.985Z,21.47
2018-11-22T19:20:22.874Z,21.53
2018-11-22T19:22:52.119Z,21.90
2018-11-22T19:25:21.244Z,21.00
2018-11-22T19:27:49.883Z,20.97
2018-11-22T19:30:26.194Z,22.00
2018-11-22T19:32:55.831Z,21.00
2018-11-22T19:35:25.852Z,19.53
2018-11-22T19:37:54.336Z,21.73
2018-11-22T19:40:30.632Z,20.97
2018-11-22T19:43:01.427Z,19.77
2018-11-22T19:45:31.186Z,22.87
2018-11-22T19:47:59.687Z,21.10
2018-11-22T19:50:28.913Z,21.03
2018-11-22T19:52:58.477Z,21.80
2018-11-22T19:55:28.257Z,22.50
2018-11-22T19:57:59.052Z,23.17
2018-11-22T20:00:28.243Z,21.70
2018-11-22T20:02:57.830Z,22.60
2018-11-22T20:05:27.280Z,22.77
2018-11-22T20:07:58.069Z,18.67
2018-11-22T20:10:28.060Z,23.20
2018-11-22T20:12:56.532Z,23.20
2018-11-22T20:15:25.055Z,21.57
2018-11-22T20:17:53.899Z,20.77
2018-11-22T20:20:23.102Z,21.77
2018-11-22T20:22:51.937Z,22.40
2018-11-22T20:25:20.442Z,22.60
2018-11-22T20:27:49.629Z,20.97
2018-11-22T20:30:34.229Z,22.77
2018-11-22T20:33:02.956Z,21.40
2018-11-22T20:35:32.088Z,18.07
2018-11-22T20:38:00.590Z,21.47
2018-11-22T20:40:29.517Z,20.10
2018-11-22T20:42:58.431Z,21.90
2018-11-22T20:45:27.545Z,21.13
2018-11-22T20:47:58.479Z,23.00
2018-11-22T20:50:27.726Z,22.97
2018-11-22T20:52:56.187Z,21.67
2018-11-22T20:55:26.075Z,20.00
2018-11-22T20:57:55.668Z,23.00
2018-11-22T21:00:25.528Z,23.60
2018-11-22T21:02:53.975Z,21.03
2018-11-22T21:05:23.151Z,24.07
2018-11-22T21:07:51.603Z,22.07
2018-11-22T21:10:21.477Z,23.20
2018-11-22T21:12:49.934Z,21.27
2018-11-22T21:15:20.483Z,22.87
2018-11-22T21:17:50.018Z,22.97
2018-11-22T21:20:19.861Z,22.47
2018-11-22T21:22:48.339Z,22.43
2018-11-22T21:25:18.119Z,22.00
2018-11-22T21:27:46.603Z,23.10
2018-11-22T21:30:17.662Z,22.33
2018-11-22T21:32:47.043Z,23.40
2018-11-22T21:35:16.202Z,23.07
2018-11-22T21:37:45.079Z,21.63
2018-11-22T21:40:14.720Z,22.53
2018-11-22T21:42:42.816Z,24.17
2018-11-22T21:45:13.871Z,23.53
2018-11-22T21:47:42.676Z,23.10
2018-11-22T21:50:12.503Z,23.30
2018-11-22T21:52:41.020Z,21.90
2018-11-22T21:55:12.052Z,23.10
2018-11-22T21:57:41.385Z,23.23
2018-11-22T22:00:17.440Z,21.93
2018-11-22T22:02:52.483Z,22.53
2018-11-22T22:05:15.481Z,22.40
2018-11-22T22:07:43.960Z,22.30
2018-11-22T22:10:12.509Z,24.27
2018-11-22T22:12:41.722Z,22.10
2018-11-22T22:15:13.455Z,21.80
2018-11-22T22:17:42.793Z,24.33
2018-11-22T22:20:14.246Z,22.30
2018-11-22T22:22:42.972Z,23.37
2018-11-22T22:25:13.734Z,23.97
2018-11-22T22:27:42.526Z,23.50
2018-11-22T22:30:14.573Z,20.10
2018-11-22T22:32:43.712Z,22.70
2018-11-22T22:35:12.200Z,23.87
2018-11-22T22:37:40.726Z,24.20
2018-11-22T22:40:12.790Z,24.43
2018-11-22T22:42:42.315Z,22.53
2018-11-22T22:45:11.215Z,21.73
2018-11-22T22:47:39.697Z,22.70
2018-11-22T22:50:10.689Z,24.00
2018-11-22T22:52:39.175Z,22.93
2018-11-22T22:55:08.200Z,23.73
2018-11-22T22:57:36.678Z,25.10
2018-11-22T23:00:08.044Z,24.07
2018-11-22T23:02:36.533Z,25.03
2018-11-22T23:05:05.884Z,26.47
2018-11-22T23:07:34.364Z,25.97
2018-11-22T23:10:02.826Z,25.43
2018-11-22T23:12:31.356Z,24.60
2018-11-22T23:14:59.811Z,25.83
2018-11-22T23:17:28.289Z,23.00
2018-11-22T23:19:56.768Z,24.57
2018-11-22T23:22:25.239Z,24.87
2018-11-22T23:24:53.712Z,24.67
2018-11-22T23:27:22.224Z,24.30
2018-11-22T23:29:50.707Z,24.93
2018-11-22T23:32:19.178Z,26.47
2018-11-22T23:34:47.640Z,22.17
2018-11-22T23:37:16.114Z,24.53
2018-11-22T23:39:44.570Z,25.77
2018-11-22T23:42:13.053Z,26.13
2018-11-22T23:44:41.498Z,22.47
2018-11-22T23:47:09.963Z,23.13
2018-11-22T23:49:38.413Z,23.50
2018-11-22T23:52:06.896Z,24.20
2018-11-22T23:54:35.339Z,22.07
2018-11-22T23:57:03.810Z,22.30
2018-11-22T23:59:32.261Z,25.33
